Time;durP1;ratioP1;P1;durP2;ratioP2;P2;SDS_P1;SDS_P2;PMS_P1;PMS_P2;Temp;Humidity;BMP_temperature;BMP_pressure;BME280_temperature;BME280_humidity;BME280_pressure;Samples;Min_cycle;Max_cycle;Signal;HPM_P1;HPM_P2
2022/05/17 00:01:25;;;;;;;189.82;85.97;;;14.60;99.90;;;;;;4977348;28;20042;-74
2022/05/17 00:03:52;;;;;;;206.43;86.43;;;14.60;99.90;;;;;;4978824;28;20478;-74
2022/05/17 00:06:20;;;;;;;200.75;86.13;;;14.50;99.90;;;;;;4980593;28;20085;-73
2022/05/17 00:08:47;;;;;;;203.18;85.00;;;14.50;99.90;;;;;;4979334;28;20046;-72
2022/05/17 00:11:15;;;;;;;192.68;84.82;;;14.40;99.90;;;;;;4979382;28;20475;-73
2022/05/17 00:13:42;;;;;;;185.45;83.95;;;14.40;99.90;;;;;;4983737;28;20132;-73
2022/05/17 00:16:10;;;;;;;183.60;78.32;;;14.40;99.90;;;;;;4994797;28;20045;-73
2022/05/17 00:18:38;;;;;;;193.43;82.28;;;14.40;99.90;;;;;;4998775;28;20730;-73
2022/05/17 00:21:05;;;;;;;189.45;81.30;;;14.40;99.90;;;;;;4977526;28;20042;-74
2022/05/17 00:23:33;;;;;;;183.27;82.30;;;14.40;99.90;;;;;;4978757;28;20081;-73
2022/05/17 00:26:00;;;;;;;184.30;80.45;;;14.20;99.90;;;;;;4978495;28;20046;-73
2022/05/17 00:28:27;;;;;;;195.77;80.13;;;14.20;99.90;;;;;;4979043;28;20058;-73
2022/05/17 00:30:55;;;;;;;184.43;79.63;;;14.20;99.90;;;;;;4978488;28;20309;-73
2022/05/17 00:33:21;;;;;;;181.13;78.25;;;14.30;99.90;;;;;;4959769;28;20050;-73
2022/05/17 00:35:49;;;;;;;177.88;78.13;;;14.10;99.90;;;;;;4958521;28;20046;-73
2022/05/17 00:38:16;;;;;;;173.35;75.05;;;14.10;99.90;;;;;;4991646;28;20071;-73
2022/05/17 00:40:44;;;;;;;184.88;77.47;;;14.10;99.90;;;;;;4960013;28;20058;-73
2022/05/17 00:43:20;;;;;;;173.40;74.63;;;14.10;99.90;;;;;;4970777;28;20049;-73
2022/05/17 00:45:50;;;;;;;162.90;71.20;;;14.00;99.90;;;;;;4985618;28;20050;-73
2022/05/17 00:48:19;;;;;;;172.80;75.45;;;14.00;99.90;;;;;;4980378;28;20537;-72
2022/05/17 00:50:51;;;;;;;154.32;73.25;;;13.90;99.90;;;;;;4978761;28;20116;-73
2022/05/17 00:53:22;;;;;;;167.75;73.68;;;14.00;99.90;;;;;;4964653;28;20038;-72
2022/05/17 00:55:52;;;;;;;182.52;72.38;;;13.90;99.90;;;;;;4991873;28;20042;-73
2022/05/17 00:58:39;;;;;;;186.75;72.97;;;13.90;99.90;;;;;;4960917;28;20711;-73
2022/05/17 01:01:17;;;;;;;154.13;72.25;;;13.80;99.90;;;;;;4957124;28;20047;-73
2022/05/17 01:04:01;;;;;;;180.98;74.55;;;13.80;99.90;;;;;;4979187;28;20051;-73
2022/05/17 01:06:32;;;;;;;152.27;64.43;;;13.70;99.90;;;;;;4959675;28;20054;-73
2022/05/17 01:08:59;;;;;;;143.68;64.75;;;13.70;99.90;;;;;;4959008;28;20510;-73
2022/05/17 01:11:26;;;;;;;152.90;65.40;;;13.60;99.90;;;;;;4957199;28;20051;-73
2022/05/17 01:16:39;;;;;;;128.80;58.83;;;13.60;99.90;;;;;;4995658;28;20057;-73
2022/05/17 01:19:08;;;;;;;148.25;62.55;;;13.50;99.90;;;;;;4994768;28;20046;-73
2022/05/17 01:21:36;;;;;;;127.82;56.70;;;13.60;99.90;;;;;;4975942;28;20287;-73
2022/05/17 01:24:03;;;;;;;128.52;58.15;;;13.40;99.90;;;;;;4972695;28;20414;-73
2022/05/17 01:26:33;;;;;;;140.50;59.03;;;13.50;99.90;;;;;;4977141;28;20194;-73
2022/05/17 01:29:05;;;;;;;123.25;57.22;;;13.60;99.90;;;;;;4979437;28;20046;-73
2022/05/17 01:31:35;;;;;;;128.40;56.78;;;13.40;99.90;;;;;;4975144;28;20042;-72
2022/05/17 01:34:10;;;;;;;129.88;58.55;;;13.40;99.90;;;;;;4973703;28;20076;-73
2022/05/17 01:36:38;;;;;;;145.63;59.50;;;13.30;99.90;;;;;;4978467;28;20783;-73
2022/05/17 01:39:05;;;;;;;141.07;60.95;;;13.30;99.90;;;;;;4975875;28;20144;-72
2022/05/17 01:41:32;;;;;;;148.60;61.20;;;13.40;99.90;;;;;;4974119;28;20043;-72
2022/05/17 01:43:59;;;;;;;155.88;61.85;;;13.50;99.90;;;;;;4980343;28;20064;-74
2022/05/17 01:46:26;;;;;;;150.93;61.88;;;13.60;99.90;;;;;;4994896;28;20088;-73
2022/05/17 01:48:54;;;;;;;140.82;59.03;;;13.50;99.90;;;;;;4991846;28;20140;-73
2022/05/17 01:51:22;;;;;;;153.63;60.97;;;13.40;99.90;;;;;;4987799;28;20057;-73
2022/05/17 01:53:48;;;;;;;164.98;63.08;;;13.30;99.90;;;;;;4958662;28;20064;-72
2022/05/17 01:56:16;;;;;;;148.88;60.67;;;13.30;99.90;;;;;;4957044;28;20046;-73
2022/05/17 01:58:42;;;;;;;140.85;59.20;;;13.20;99.90;;;;;;4970030;28;20050;-73
2022/05/17 02:01:10;;;;;;;156.45;60.60;;;13.10;99.90;;;;;;4974174;28;20343;-73
2022/05/17 02:03:38;;;;;;;138.93;59.92;;;13.20;99.90;;;;;;4975096;28;20050;-73
2022/05/17 02:06:05;;;;;;;152.38;62.40;;;13.20;99.90;;;;;;4975443;28;20039;-73
2022/05/17 02:08:32;;;;;;;170.57;63.20;;;13.10;99.90;;;;;;4975900;28;20062;-73
2022/05/17 02:10:59;;;;;;;173.93;68.53;;;13.10;99.90;;;;;;4977508;28;20046;-73
2022/05/17 02:13:26;;;;;;;191.55;70.25;;;12.90;99.90;;;;;;4974105;28;20071;-72
2022/05/17 02:15:53;;;;;;;158.43;64.22;;;12.90;99.90;;;;;;4973640;28;20050;-72
2022/05/17 02:18:19;;;;;;;190.73;69.63;;;12.90;99.90;;;;;;4991098;28;20049;-73
2022/05/17 02:20:46;;;;;;;216.63;77.20;;;12.90;99.90;;;;;;4978064;28;20042;-72
2022/05/17 02:23:13;;;;;;;182.48;69.07;;;12.90;99.90;;;;;;4957756;28;20042;-73
2022/05/17 02:25:40;;;;;;;220.82;76.38;;;12.80;99.90;;;;;;4976141;28;20150;-73
2022/05/17 02:28:10;;;;;;;194.18;74.00;;;12.70;99.90;;;;;;4976404;28;20050;-72
2022/05/17 02:30:39;;;;;;;229.80;78.95;;;12.60;99.90;;;;;;4974795;28;20046;-72
2022/05/17 02:33:06;;;;;;;312.48;91.97;;;12.60;99.90;;;;;;4976088;28;20054;-72
2022/05/17 02:35:33;;;;;;;255.77;82.05;;;12.70;99.90;;;;;;4973421;28;20046;-72
2022/05/17 02:38:00;;;;;;;325.33;91.25;;;12.70;99.90;;;;;;4977541;28;20042;-73
2022/05/17 02:40:27;;;;;;;307.25;90.47;;;12.70;99.90;;;;;;4975778;28;20047;-72
2022/05/17 02:42:54;;;;;;;247.73;82.38;;;12.70;99.90;;;;;;4974895;28;20049;-72
2022/05/17 02:45:21;;;;;;;318.88;89.63;;;12.60;99.90;;;;;;4981718;28;20325;-73
2022/05/17 02:47:48;;;;;;;281.15;86.10;;;12.60;99.90;;;;;;4970167;28;20056;-72
2022/05/17 02:50:15;;;;;;;294.60;87.55;;;12.60;99.90;;;;;;4980287;28;20537;-73
2022/05/17 02:52:42;;;;;;;238.07;81.20;;;12.80;99.90;;;;;;4974900;28;20050;-73
2022/05/17 02:55:09;;;;;;;397.13;98.93;;;12.80;99.90;;;;;;4964047;28;20379;-73
2022/05/17 02:57:37;;;;;;;297.65;89.25;;;12.80;99.90;;;;;;4991865;28;20050;-73
2022/05/17 03:00:08;;;;;;;417.20;99.70;;;12.80;99.90;;;;;;4994413;28;20057;-73
2022/05/17 03:02:35;;;;;;;387.50;97.80;;;12.80;99.90;;;;;;4996014;28;20053;-73
2022/05/17 03:05:02;;;;;;;454.05;102.45;;;12.80;99.90;;;;;;4985262;28;20226;-73
2022/05/17 03:07:29;;;;;;;291.60;87.05;;;12.70;99.90;;;;;;4960715;28;20293;-73
2022/05/17 03:09:55;;;;;;;506.23;101.85;;;12.80;99.90;;;;;;4989292;28;20061;-73
2022/05/17 03:12:23;;;;;;;389.67;98.95;;;12.90;99.90;;;;;;4973459;28;20045;-73
2022/05/17 03:14:49;;;;;;;391.05;99.40;;;12.80;99.90;;;;;;4985482;28;20054;-73
2022/05/17 03:17:17;;;;;;;302.30;88.18;;;12.80;99.90;;;;;;4998363;28;20045;-73
2022/05/17 03:19:44;;;;;;;331.17;91.53;;;12.70;99.90;;;;;;4992021;28;20050;-73
2022/05/17 03:22:11;;;;;;;304.17;89.35;;;12.70;99.90;;;;;;4979488;28;20517;-73
2022/05/17 03:24:38;;;;;;;385.27;100.35;;;12.70;99.90;;;;;;4977786;28;20387;-73
2022/05/17 03:27:25;;;;;;;384.38;96.80;;;12.60;99.90;;;;;;4959763;28;20110;-72
2022/05/17 03:29:52;;;;;;;249.60;79.75;;;12.60;99.90;;;;;;4961200;28;20840;-73
2022/05/17 03:32:19;;;;;;;841.55;125.97;;;12.70;99.90;;;;;;4958873;28;20058;-72
2022/05/17 03:34:47;;;;;;;622.55;108.18;;;12.50;99.90;;;;;;4958199;28;20054;-72
2022/05/17 03:37:14;;;;;;;336.25;84.00;;;12.50;99.90;;;;;;4976754;28;20054;-72
2022/05/17 03:39:40;;;;;;;327.63;83.57;;;12.40;99.90;;;;;;4978347;28;20050;-73
2022/05/17 03:42:09;;;;;;;376.40;91.28;;;12.50;99.90;;;;;;4978891;28;20047;-74
2022/05/17 03:44:37;;;;;;;282.08;80.32;;;12.50;99.90;;;;;;5012248;22;20433;-75
2022/05/17 03:47:06;;;;;;;225.88;70.07;;;12.50;99.90;;;;;;5017681;28;20045;-75
2022/05/17 03:49:35;;;;;;;236.75;72.93;;;12.40;99.90;;;;;;5013558;28;20120;-74
2022/05/17 03:52:02;;;;;;;195.55;69.25;;;12.40;99.90;;;;;;4999737;28;20418;-74
2022/05/17 03:54:29;;;;;;;231.48;70.80;;;12.40;99.90;;;;;;4981797;28;20045;-74
2022/05/17 03:56:56;;;;;;;196.65;66.90;;;12.20;99.90;;;;;;4998323;28;20065;-74
2022/05/17 03:59:23;;;;;;;174.00;65.10;;;12.10;99.90;;;;;;5000996;28;20053;-74
2022/05/17 04:01:50;;;;;;;173.57;59.88;;;12.00;99.90;;;;;;5000011;28;20093;-74
2022/05/17 04:04:16;;;;;;;170.73;58.33;;;11.90;99.90;;;;;;4981283;28;20046;-74
2022/05/17 04:06:43;;;;;;;153.15;59.70;;;11.70;99.90;;;;;;4979810;28;20209;-74
2022/05/17 04:09:10;;;;;;;127.38;53.55;;;11.70;99.90;;;;;;4998086;28;20038;-72
2022/05/17 04:11:37;;;;;;;116.18;51.38;;;11.60;99.90;;;;;;4997211;28;20747;-75
2022/05/17 04:14:05;;;;;;;125.75;55.35;;;11.70;99.90;;;;;;4980120;28;20417;-74
2022/05/17 04:16:38;;;;;;;154.30;58.60;;;11.80;99.90;;;;;;4998527;28;20046;-74
2022/05/17 04:19:06;;;;;;;224.00;67.50;;;11.70;99.90;;;;;;4981019;28;20060;-74
2022/05/17 04:21:34;;;;;;;248.25;73.60;;;11.80;99.90;;;;;;4962461;28;20052;-73
2022/05/17 04:24:01;;;;;;;291.55;73.40;;;11.90;99.90;;;;;;4981722;28;20049;-73
2022/05/17 04:26:28;;;;;;;133.68;56.35;;;11.80;99.90;;;;;;4998376;28;20057;-73
2022/05/17 04:28:55;;;;;;;159.48;59.38;;;11.90;99.90;;;;;;4999607;28;20049;-74
2022/05/17 04:31:22;;;;;;;140.02;56.60;;;11.80;99.90;;;;;;4996769;28;20072;-73
2022/05/17 04:33:50;;;;;;;157.40;61.13;;;11.70;99.90;;;;;;4999153;28;20648;-73
2022/05/17 04:36:17;;;;;;;147.88;58.63;;;11.70;99.90;;;;;;5000179;28;20119;-73
2022/05/17 04:38:43;;;;;;;127.82;56.17;;;11.70;99.90;;;;;;4980719;28;20050;-73
2022/05/17 04:41:10;;;;;;;149.93;57.15;;;11.70;99.90;;;;;;4998392;28;20045;-73
2022/05/17 04:43:38;;;;;;;146.77;57.05;;;11.60;99.90;;;;;;4989972;28;20538;-72
2022/05/17 04:46:07;;;;;;;143.10;59.92;;;11.70;99.90;;;;;;4992530;28;20046;-74
2022/05/17 04:48:34;;;;;;;134.25;56.63;;;11.80;99.90;;;;;;4985207;28;20085;-73
2022/05/17 04:51:06;;;;;;;134.73;55.45;;;11.80;99.90;;;;;;4977225;28;20053;-73
2022/05/17 04:53:34;;;;;;;133.23;58.95;;;12.00;99.90;;;;;;4979365;28;20523;-73
2022/05/17 04:56:01;;;;;;;152.20;62.78;;;12.10;99.90;;;;;;4978353;28;20054;-73
2022/05/17 04:58:28;;;;;;;148.13;57.92;;;12.20;99.90;;;;;;4979644;28;20058;-73
2022/05/17 05:00:55;;;;;;;126.45;51.40;;;12.40;99.90;;;;;;4974975;28;20042;-73
2022/05/17 05:03:22;;;;;;;106.72;49.72;;;12.60;99.90;;;;;;4959550;28;20100;-73
2022/05/17 05:05:49;;;;;;;94.72;48.03;;;12.70;99.90;;;;;;4978101;28;20054;-73
2022/05/17 05:08:16;;;;;;;70.72;39.42;;;13.10;99.90;;;;;;4977531;28;20081;-73
2022/05/17 05:10:45;;;;;;;64.32;40.17;;;13.40;99.90;;;;;;4972589;28;20043;-73
2022/05/17 05:13:22;;;;;;;63.80;39.10;;;13.50;99.90;;;;;;4970620;28;20052;-73
2022/05/17 05:15:51;;;;;;;65.60;40.13;;;13.70;99.90;;;;;;4980201;28;20039;-74
2022/05/17 05:18:18;;;;;;;70.25;39.33;;;13.90;99.90;;;;;;4997098;28;20056;-74
2022/05/17 05:20:45;;;;;;;51.60;34.92;;;14.20;99.90;;;;;;4979596;28;20054;-74
2022/05/17 05:23:12;;;;;;;56.10;35.90;;;14.60;99.90;;;;;;4978607;28;20249;-74
2022/05/17 05:25:39;;;;;;;47.22;31.10;;;14.70;99.90;;;;;;4975788;28;20601;-74
2022/05/17 05:28:08;;;;;;;38.17;28.40;;;15.10;99.90;;;;;;4974581;28;20977;-73
2022/05/17 05:30:36;;;;;;;48.97;32.15;;;15.30;99.90;;;;;;4976839;28;20451;-74
2022/05/17 05:33:03;;;;;;;49.00;33.85;;;15.20;99.90;;;;;;4978485;28;20379;-74
2022/05/17 05:35:32;;;;;;;45.47;32.33;;;15.10;99.90;;;;;;4979353;28;20042;-74
2022/05/17 05:37:59;;;;;;;47.05;32.53;;;14.90;99.90;;;;;;4993875;28;20054;-74
2022/05/17 05:40:26;;;;;;;52.20;29.27;;;14.70;99.90;;;;;;4975910;28;20415;-73
2022/05/17 05:42:53;;;;;;;41.25;30.60;;;14.60;99.90;;;;;;4979503;28;20065;-73
2022/05/17 05:45:20;;;;;;;45.38;29.75;;;14.50;99.90;;;;;;4989980;28;20072;-74
2022/05/17 05:47:49;;;;;;;43.00;28.83;;;14.50;99.90;;;;;;5018878;28;20060;-73
2022/05/17 05:50:16;;;;;;;39.97;28.23;;;14.50;99.90;;;;;;4991951;28;20403;-73
2022/05/17 05:52:42;;;;;;;40.38;28.10;;;14.50;99.90;;;;;;4996659;28;20139;-74
2022/05/17 05:55:15;;;;;;;40.63;26.08;;;14.50;99.90;;;;;;4995971;28;20119;-74
2022/05/17 05:57:46;;;;;;;37.38;24.88;;;14.50;99.90;;;;;;4997641;28;20528;-74
2022/05/17 06:00:14;;;;;;;39.40;24.60;;;14.50;99.90;;;;;;4997368;28;20533;-74
2022/05/17 06:02:41;;;;;;;37.83;27.92;;;14.60;99.90;;;;;;4997138;28;20050;-74
2022/05/17 06:05:08;;;;;;;42.65;28.70;;;14.80;99.90;;;;;;4996348;28;20042;-73
2022/05/17 06:07:36;;;;;;;37.58;24.92;;;15.00;99.90;;;;;;4981186;28;20037;-74
2022/05/17 06:10:05;;;;;;;35.25;25.85;;;15.00;99.90;;;;;;4998089;28;20046;-73
2022/05/17 06:12:32;;;;;;;36.42;24.98;;;15.00;99.90;;;;;;4994443;28;20113;-74
2022/05/17 06:14:58;;;;;;;38.08;26.13;;;15.00;99.90;;;;;;4986629;28;20049;-73
2022/05/17 06:17:27;;;;;;;34.13;23.98;;;14.80;99.90;;;;;;4999799;28;20052;-74
2022/05/17 06:19:55;;;;;;;35.67;24.23;;;14.90;99.90;;;;;;4992360;28;20072;-73
2022/05/17 06:22:24;;;;;;;40.03;24.95;;;14.90;99.90;;;;;;4979816;28;20046;-74
2022/05/17 06:24:50;;;;;;;45.53;25.35;;;14.80;99.90;;;;;;4993938;28;20128;-73
2022/05/17 06:27:23;;;;;;;46.08;27.10;;;14.90;99.90;;;;;;4964340;28;20042;-74
2022/05/17 06:29:52;;;;;;;37.72;23.73;;;15.00;99.90;;;;;;4980256;28;20054;-73
2022/05/17 06:32:19;;;;;;;32.72;23.75;;;15.20;99.90;;;;;;4996631;28;20125;-74
2022/05/17 06:34:47;;;;;;;35.58;23.63;;;15.30;99.90;;;;;;4979804;28;20053;-73
2022/05/17 06:37:15;;;;;;;35.60;24.35;;;15.40;99.90;;;;;;4997166;28;20045;-74
2022/05/17 06:39:45;;;;;;;33.20;24.00;;;15.60;99.90;;;;;;5004617;28;20042;-74
2022/05/17 06:42:12;;;;;;;32.63;23.13;;;15.70;99.90;;;;;;4995755;28;20046;-74
2022/05/17 06:44:40;;;;;;;29.27;22.60;;;15.90;99.90;;;;;;4994079;28;20072;-74
2022/05/17 06:47:07;;;;;;;34.67;24.27;;;16.10;99.90;;;;;;5015948;28;20525;-73
2022/05/17 06:49:39;;;;;;;38.17;22.48;;;16.20;99.90;;;;;;5016590;28;20064;-74
2022/05/17 06:52:08;;;;;;;30.33;21.63;;;16.20;99.90;;;;;;4976837;28;20056;-75
2022/05/17 06:54:43;;;;;;;29.42;22.27;;;16.20;99.90;;;;;;4978680;28;20045;-75
2022/05/17 06:57:14;;;;;;;29.05;21.98;;;16.30;99.90;;;;;;4980232;28;20038;-75
2022/05/17 06:59:42;;;;;;;29.73;22.30;;;16.50;99.90;;;;;;4996570;28;20045;-76
2022/05/17 07:02:10;;;;;;;29.02;23.40;;;16.60;99.90;;;;;;4978665;28;20053;-76
2022/05/17 07:04:39;;;;;;;30.45;22.67;;;16.60;99.90;;;;;;4979922;28;20145;-77
2022/05/17 07:07:07;;;;;;;33.22;22.92;;;16.70;99.90;;;;;;4996407;28;20050;-76
2022/05/17 07:09:35;;;;;;;30.25;22.02;;;16.80;99.90;;;;;;4979542;28;20100;-77
2022/05/17 07:14:50;;;;;;;37.38;23.00;;;17.10;99.90;;;;;;4997275;28;20057;-77
2022/05/17 07:17:22;;;;;;;30.38;24.25;;;17.20;99.90;;;;;;4996977;28;20422;-77
2022/05/17 07:19:49;;;;;;;28.35;24.83;;;17.50;99.90;;;;;;4961471;28;20050;-76
2022/05/17 07:22:16;;;;;;;29.70;26.52;;;17.70;99.90;;;;;;4979500;28;20053;-77
2022/05/17 07:24:45;;;;;;;33.17;28.45;;;17.90;99.90;;;;;;4979360;28;20060;-76
2022/05/17 07:27:14;;;;;;;33.25;29.70;;;18.20;99.90;;;;;;4978298;28;20045;-77
2022/05/17 07:29:48;;;;;;;31.00;27.80;;;18.50;99.90;;;;;;4998779;28;20054;-78
2022/05/17 07:32:15;;;;;;;31.45;28.13;;;18.90;99.90;;;;;;4999623;28;20525;-78
2022/05/17 07:34:42;;;;;;;31.20;28.35;;;19.20;99.90;;;;;;4998481;28;20449;-78
2022/05/17 07:37:09;;;;;;;31.33;28.50;;;19.60;99.90;;;;;;5000731;28;20486;-76
2022/05/17 07:39:36;;;;;;;31.52;28.85;;;19.70;99.90;;;;;;4980473;28;20092;-77
2022/05/17 07:42:07;;;;;;;30.88;27.95;;;19.50;99.90;;;;;;4980789;28;20041;-77
2022/05/17 07:44:36;;;;;;;30.23;27.50;;;19.60;99.90;;;;;;4996662;28;20069;-77
2022/05/17 07:47:05;;;;;;;31.83;28.80;;;19.60;99.90;;;;;;4993476;28;20152;-79
2022/05/17 07:49:35;;;;;;;31.80;28.52;;;19.60;99.90;;;;;;5020251;28;20046;-78
2022/05/17 07:52:02;;;;;;;32.90;29.85;;;19.90;99.90;;;;;;5000949;28;20824;-75
2022/05/17 07:54:29;;;;;;;30.17;27.20;;;19.90;99.90;;;;;;5001537;28;20084;-79
2022/05/17 07:56:56;;;;;;;30.92;27.92;;;19.90;99.90;;;;;;4971291;28;20718;-77
2022/05/17 07:59:23;;;;;;;29.13;26.23;;;20.00;99.90;;;;;;4986491;28;20112;-76
2022/05/17 08:01:50;;;;;;;29.35;26.92;;;19.90;99.90;;;;;;5000435;28;20449;-75
2022/05/17 08:04:17;;;;;;;29.30;26.77;;;19.70;99.90;;;;;;5001488;28;20149;-79
2022/05/17 08:06:44;;;;;;;29.05;26.20;;;19.60;99.90;;;;;;5004526;28;20157;-75
2022/05/17 08:09:14;;;;;;;30.15;27.13;;;19.80;99.90;;;;;;5011224;28;20052;-80
2022/05/17 08:11:42;;;;;;;27.27;25.00;;;19.80;99.90;;;;;;5009807;28;20041;-78
2022/05/17 08:14:09;;;;;;;26.83;24.58;;;19.80;99.90;;;;;;5004551;28;20518;-77
2022/05/17 08:16:40;;;;;;;28.50;26.15;;;19.70;99.90;;;;;;5001501;28;20056;-77
2022/05/17 08:19:06;;;;;;;27.27;24.85;;;19.60;99.90;;;;;;4987200;28;20058;-80
2022/05/17 08:21:33;;;;;;;25.85;23.90;;;19.60;99.90;;;;;;5002390;28;20045;-77
2022/05/17 08:24:00;;;;;;;27.08;24.40;;;19.50;99.90;;;;;;4985059;28;20045;-78
2022/05/17 08:29:13;;;;;;;27.52;25.25;;;19.40;99.90;;;;;;5002763;28;20053;-74
2022/05/17 08:31:40;;;;;;;26.73;24.77;;;19.50;99.90;;;;;;4999639;28;20048;-77
2022/05/17 08:34:08;;;;;;;27.75;25.17;;;19.70;99.90;;;;;;4999494;28;20054;-78
2022/05/17 08:36:35;;;;;;;28.58;26.02;;;19.90;99.90;;;;;;5000745;28;20108;-79
2022/05/17 08:39:03;;;;;;;29.70;26.65;;;20.00;99.90;;;;;;5000132;28;20359;-77
2022/05/17 08:41:59;;;;;;;29.05;26.75;;;20.10;99.90;;;;;;5000644;28;20813;-77
2022/05/17 08:44:43;;;;;;;29.52;26.85;;;19.90;99.90;;;;;;4983622;28;20049;-76
2022/05/17 08:47:21;;;;;;;28.43;25.63;;;20.00;99.90;;;;;;5002942;28;20200;-79
2022/05/17 08:50:19;;;;;;;27.67;25.67;;;20.00;99.90;;;;;;4999019;28;20051;-76
2022/05/17 08:52:46;;;;;;;28.63;26.00;;;20.00;99.90;;;;;;4975228;28;20644;-79
2022/05/17 08:55:23;;;;;;;28.98;26.45;;;20.20;99.90;;;;;;4995436;28;20034;-79
2022/05/17 08:57:56;;;;;;;27.95;25.35;;;20.30;99.90;;;;;;5011704;28;20080;-79
2022/05/17 09:00:28;;;;;;;26.95;24.88;;;20.50;99.90;;;;;;5005216;28;20064;-77
2022/05/17 09:03:24;;;;;;;27.98;25.48;;;20.80;99.90;;;;;;5006563;28;20042;-77
2022/05/17 09:06:18;;;;;;;28.35;26.05;;;20.90;99.90;;;;;;4987140;28;20046;-78
2022/05/17 09:09:00;;;;;;;29.10;26.95;;;21.40;99.90;;;;;;4981700;28;20050;-80
2022/05/17 09:12:09;;;;;;;29.75;27.17;;;21.40;99.90;;;;;;4999976;28;20049;-78
2022/05/17 09:14:41;;;;;;;25.65;23.77;;;21.30;99.90;;;;;;4970026;28;20104;-76
2022/05/17 09:17:12;;;;;;;29.13;26.70;;;21.20;99.90;;;;;;5023247;28;20046;-80
2022/05/17 09:19:40;;;;;;;29.30;26.90;;;21.40;99.90;;;;;;4990061;28;20061;-78
2022/05/17 09:22:07;;;;;;;27.48;25.58;;;21.60;99.90;;;;;;5001749;28;20042;-76
2022/05/17 09:24:59;;;;;;;27.60;25.55;;;21.50;99.90;;;;;;4967509;28;20056;-76
2022/05/17 09:27:28;;;;;;;28.42;25.95;;;21.20;99.90;;;;;;4985931;28;20052;-78
2022/05/17 09:30:11;;;;;;;28.63;26.10;;;20.90;99.90;;;;;;5005327;28;20112;-81
2022/05/17 09:32:44;;;;;;;28.90;26.38;;;20.70;99.90;;;;;;4998865;28;20037;-80
2022/05/17 09:35:18;;;;;;;30.20;28.10;;;20.80;99.90;;;;;;4987332;28;20077;-79
2022/05/17 09:37:56;;;;;;;27.38;25.52;;;21.10;99.90;;;;;;5012711;28;20776;-76
2022/05/17 09:40:35;;;;;;;28.73;26.65;;;21.60;99.90;;;;;;4978510;28;20049;-79
2022/05/17 09:43:04;;;;;;;29.05;27.15;;;21.90;99.90;;;;;;4996151;22;20054;-74
2022/05/17 09:46:09;;;;;;;28.77;26.50;;;22.00;99.90;;;;;;4991639;28;20041;-75
2022/05/17 09:54:34;;;;;;;28.95;26.80;;;22.90;99.90;;;;;;5003164;28;20077;-75
2022/05/17 09:57:13;;;;;;;28.25;25.85;;;22.80;99.90;;;;;;4985115;28;20495;-74
2022/05/17 09:59:41;;;;;;;29.30;26.95;;;23.10;99.90;;;;;;5001871;28;20143;-75
2022/05/17 10:02:28;;;;;;;29.25;26.98;;;22.90;99.90;;;;;;4985148;28;20543;-76
2022/05/17 10:04:58;;;;;;;26.85;24.95;;;23.00;99.90;;;;;;4985518;28;20476;-76
2022/05/17 10:07:29;;;;;;;28.67;26.15;;;23.50;99.90;;;;;;5003159;28;20088;-75
2022/05/17 10:09:56;;;;;;;27.95;25.73;;;23.60;99.90;;;;;;5016895;28;20500;-74
2022/05/17 10:12:29;;;;;;;26.75;24.30;;;23.30;99.90;;;;;;4997033;28;20403;-75
2022/05/17 10:15:05;;;;;;;27.08;25.17;;;22.80;99.90;;;;;;4985285;28;20050;-75
2022/05/17 10:17:51;;;;;;;26.88;24.77;;;22.80;99.90;;;;;;4968710;28;20596;-76
2022/05/17 10:20:27;;;;;;;26.05;24.17;;;22.80;99.90;;;;;;4985348;28;20046;-74
2022/05/17 10:23:25;;;;;;;27.20;25.27;;;23.10;99.90;;;;;;4984473;28;20579;-75
2022/05/17 10:25:56;;;;;;;27.23;25.20;;;23.20;99.90;;;;;;4981905;28;20413;-75
2022/05/17 10:28:41;;;;;;;27.67;25.40;;;23.30;99.90;;;;;;4966243;28;20101;-75
2022/05/17 10:31:18;;;;;;;25.83;23.85;;;23.50;99.90;;;;;;4988182;28;20046;-76
2022/05/17 10:34:19;;;;;;;27.77;25.70;;;23.20;99.90;;;;;;4984614;28;20054;-76
2022/05/17 10:36:50;;;;;;;27.20;25.00;;;23.00;99.90;;;;;;4984454;28;20469;-75
2022/05/17 10:39:51;;;;;;;27.58;25.38;;;23.40;99.90;;;;;;4984832;28;20153;-75
2022/05/17 10:42:18;;;;;;;27.50;25.50;;;23.60;99.90;;;;;;5004337;28;20053;-75
2022/05/17 10:44:53;;;;;;;27.02;24.92;;;24.20;99.90;;;;;;5012208;28;20045;-75
2022/05/17 10:47:23;;;;;;;27.08;25.27;;;24.50;99.90;;;;;;4984448;28;20137;-74
2022/05/17 10:50:22;;;;;;;26.90;24.85;;;24.40;99.90;;;;;;5001691;28;20664;-75
2022/05/17 10:53:27;;;;;;;27.92;25.83;;;23.90;99.90;;;;;;5000580;28;20046;-76
2022/05/17 10:56:26;;;;;;;27.30;25.30;;;23.50;99.90;;;;;;5003280;28;20295;-75
2022/05/17 10:58:53;;;;;;;26.30;24.15;;;23.10;99.90;;;;;;4985080;28;20054;-75
2022/05/17 11:01:28;;;;;;;27.33;25.42;;;23.20;99.90;;;;;;4984249;28;20611;-75
2022/05/17 11:04:27;;;;;;;26.90;25.00;;;23.30;99.90;;;;;;4983191;28;20050;-75
2022/05/17 11:07:32;;;;;;;27.45;25.30;;;23.30;99.90;;;;;;5002637;28;20038;-76
2022/05/17 11:10:34;;;;;;;27.33;25.20;;;23.50;99.90;;;;;;4968451;28;20073;-76
2022/05/17 11:13:28;;;;;;;28.42;26.33;;;23.70;99.90;;;;;;4930642;28;20040;-72
2022/05/17 11:16:07;;;;;;;28.00;25.80;;;24.00;99.90;;;;;;4959959;28;20045;-75
2022/05/17 11:18:39;;;;;;;28.08;25.77;;;24.00;99.90;;;;;;5019184;28;20053;-77
2022/05/17 11:21:20;;;;;;;28.10;25.90;;;24.10;99.90;;;;;;4985324;28;20046;-78
2022/05/17 11:24:00;;;;;;;29.77;27.20;;;23.90;99.90;;;;;;5004892;28;20145;-77
2022/05/17 11:26:39;;;;;;;26.90;25.00;;;23.60;99.90;;;;;;4988207;28;20041;-78
2022/05/17 11:29:31;;;;;;;29.40;27.02;;;23.50;99.90;;;;;;4988468;28;20463;-76
2022/05/17 11:32:14;;;;;;;29.65;27.52;;;23.80;99.90;;;;;;5008029;28;20420;-77
2022/05/17 11:34:43;;;;;;;29.15;26.98;;;23.90;99.90;;;;;;5017951;28;20045;-77
2022/05/17 11:37:33;;;;;;;28.75;26.33;;;23.90;99.90;;;;;;5007691;28;20058;-77
2022/05/17 11:40:03;;;;;;;29.83;27.63;;;24.00;99.90;;;;;;4978981;28;20463;-74
2022/05/17 11:42:34;;;;;;;30.38;28.25;;;23.80;99.90;;;;;;5009081;28;20041;-75
2022/05/17 11:45:20;;;;;;;28.95;26.73;;;23.60;99.90;;;;;;4996092;28;20443;-75
2022/05/17 11:47:51;;;;;;;30.02;27.58;;;23.50;99.90;;;;;;4999158;28;20556;-77
2022/05/17 11:50:38;;;;;;;29.90;27.38;;;23.30;99.90;;;;;;4970383;28;20050;-75
2022/05/17 11:53:23;;;;;;;30.38;27.90;;;23.10;99.90;;;;;;4968026;28;20069;-75
2022/05/17 11:56:18;;;;;;;29.38;27.13;;;23.10;99.90;;;;;;4985628;28;20383;-76
2022/05/17 11:58:49;;;;;;;30.67;28.30;;;23.00;99.90;;;;;;4980050;28;20345;-75
2022/05/17 12:01:35;;;;;;;30.85;28.02;;;23.00;99.90;;;;;;5004905;28;20137;-76
2022/05/17 12:04:03;;;;;;;32.78;30.05;;;23.10;99.90;;;;;;4985088;28;20558;-76
2022/05/17 12:06:40;;;;;;;30.88;28.45;;;22.90;99.90;;;;;;4983315;28;20288;-76
2022/05/17 12:09:34;;;;;;;32.30;29.75;;;22.90;99.90;;;;;;4974780;28;20120;-74
2022/05/17 12:12:28;;;;;;;33.08;30.25;;;22.70;99.90;;;;;;5003495;28;20075;-77
2022/05/17 12:15:03;;;;;;;33.22;30.65;;;22.60;99.90;;;;;;5013573;28;20046;-76
2022/05/17 12:17:42;;;;;;;32.28;29.67;;;22.80;99.90;;;;;;5003457;28;20073;-77
2022/05/17 12:20:24;;;;;;;31.88;29.25;;;22.80;99.90;;;;;;5005088;28;20058;-76
2022/05/17 12:22:58;;;;;;;32.05;29.40;;;22.80;99.90;;;;;;4987572;28;20080;-76
2022/05/17 12:25:37;;;;;;;34.92;32.15;;;22.80;99.90;;;;;;4986589;28;20357;-77
2022/05/17 12:28:35;;;;;;;35.65;32.90;;;22.80;99.90;;;;;;4987762;28;20080;-76
2022/05/17 12:31:07;;;;;;;35.88;32.70;;;22.60;99.90;;;;;;4986530;28;20378;-73
2022/05/17 12:33:36;;;;;;;35.85;32.92;;;22.40;99.90;;;;;;4984561;28;20577;-75
2022/05/17 12:36:28;;;;;;;38.50;35.42;;;22.30;99.90;;;;;;4984168;28;20373;-76
2022/05/17 12:44:47;;;;;;;36.33;33.55;;;22.50;99.90;;;;;;4996065;28;20244;-77
2022/05/17 12:47:20;;;;;;;34.33;31.58;;;22.60;99.90;;;;;;4985372;28;20491;-76
2022/05/17 12:49:52;;;;;;;33.28;30.52;;;22.60;99.90;;;;;;5001673;28;20057;-77
2022/05/17 12:52:30;;;;;;;31.35;28.83;;;22.70;99.90;;;;;;4998646;28;20112;-77
2022/05/17 12:55:17;;;;;;;31.23;28.83;;;22.80;99.90;;;;;;4985706;28;20088;-77
2022/05/17 12:57:45;;;;;;;29.40;27.05;;;22.90;99.90;;;;;;4987009;28;20108;-76
2022/05/17 13:00:22;;;;;;;29.80;27.50;;;23.10;99.90;;;;;;4984722;28;20050;-75
2022/05/17 13:02:54;;;;;;;28.27;25.60;;;23.20;99.90;;;;;;5001205;28;20054;-76
2022/05/17 13:05:43;;;;;;;27.85;25.88;;;23.50;99.90;;;;;;4984143;28;20053;-75
2022/05/17 13:08:23;;;;;;;27.98;25.67;;;23.80;99.90;;;;;;5003958;28;20447;-76